createdAt,value
2017-11-12T00:00:33.652Z,99257
2017-11-12T00:03:02.009Z,99244
2017-11-12T00:05:30.271Z,99253
2017-11-12T00:07:58.630Z,99247
2017-11-12T00:10:28.143Z,99249
2017-11-12T00:12:56.543Z,99248
2017-11-12T00:15:24.830Z,99247
2017-11-12T00:17:53.132Z,99241
2017-11-12T00:20:21.472Z,99250
2017-11-12T00:22:49.770Z,99252
2017-11-12T00:25:18.116Z,99260
2017-11-12T00:27:46.492Z,99251
2017-11-12T00:30:14.819Z,99259
2017-11-12T00:32:43.391Z,99260
2017-11-12T00:35:11.705Z,99261
2017-11-12T00:37:40.752Z,99270
2017-11-12T00:40:09.186Z,99270
2017-11-12T00:42:37.534Z,99280
2017-11-12T00:45:05.829Z,99284
2017-11-12T00:47:34.984Z,99278
2017-11-12T00:50:03.414Z,99274
2017-11-12T00:52:31.990Z,99277
2017-11-12T00:55:00.456Z,99270
2017-11-12T00:57:29.502Z,99275
2017-11-12T00:59:58.644Z,99279
2017-11-12T01:02:27.052Z,99270
2017-11-12T01:04:56.323Z,99274
2017-11-12T01:07:24.677Z,99265
2017-11-12T01:09:53.101Z,99263
2017-11-12T01:12:22.266Z,99273
2017-11-12T01:14:50.561Z,99282
2017-11-12T01:17:18.892Z,99285
2017-11-12T01:19:47.150Z,99286
2017-11-12T01:22:15.408Z,99292
2017-11-12T01:24:43.862Z,99285
2017-11-12T01:27:12.904Z,99295
2017-11-12T01:29:41.157Z,99290
2017-11-12T01:32:09.470Z,99291
2017-11-12T01:34:37.729Z,99295
2017-11-12T01:37:06.002Z,99299
2017-11-12T01:39:34.699Z,99296
2017-11-12T01:42:03.010Z,99296
2017-11-12T01:44:31.287Z,99292
2017-11-12T01:47:00.039Z,99291
2017-11-12T01:49:28.284Z,99286
2017-11-12T01:51:56.545Z,99296
2017-11-12T01:54:25.985Z,99294
2017-11-12T01:56:54.228Z,99300
2017-11-12T01:59:23.277Z,99290
2017-11-12T02:01:51.597Z,99298
2017-11-12T02:04:20.033Z,99298
2017-11-12T02:06:48.296Z,99293
2017-11-12T02:09:16.996Z,99295
2017-11-12T02:11:45.264Z,99310
2017-11-12T02:14:13.580Z,99315
2017-11-12T02:16:41.919Z,99312
2017-11-12T02:19:10.164Z,99312
2017-11-12T02:21:38.407Z,99316
2017-11-12T02:24:07.511Z,99324
2017-11-12T02:26:36.546Z,99326
2017-11-12T02:29:04.818Z,99318
2017-11-12T02:31:33.474Z,99324
2017-11-12T02:34:02.463Z,99328
2017-11-12T02:36:31.517Z,99333
2017-11-12T02:38:59.857Z,99337
2017-11-12T02:41:28.104Z,99347
2017-11-12T02:43:56.358Z,99339
2017-11-12T02:46:24.688Z,99344
2017-11-12T02:48:52.954Z,99343
2017-11-12T02:51:21.207Z,99347
2017-11-12T02:53:49.479Z,99342
2017-11-12T02:56:18.920Z,99351
2017-11-12T02:58:47.169Z,99350
2017-11-12T03:01:16.169Z,99346
2017-11-12T03:03:44.481Z,99347
2017-11-12T03:06:12.747Z,99364
2017-11-12T03:08:41.000Z,99356
2017-11-12T03:11:09.284Z,99360
2017-11-12T03:13:37.542Z,99365
2017-11-12T03:16:05.846Z,99363
2017-11-12T03:18:34.090Z,99361
2017-11-12T03:21:02.328Z,99355
2017-11-12T03:23:30.755Z,99363
2017-11-12T03:25:59.066Z,99370
2017-11-12T03:28:27.357Z,99369
2017-11-12T03:30:55.722Z,99371
2017-11-12T03:33:24.101Z,99375
2017-11-12T03:35:52.397Z,99372
2017-11-12T03:38:20.689Z,99376
2017-11-12T03:40:49.733Z,99392
2017-11-12T03:43:18.840Z,99390
2017-11-12T03:45:47.565Z,99389
2017-11-12T03:48:16.590Z,99398
2017-11-12T03:50:44.833Z,99392
2017-11-12T03:53:13.626Z,99400
2017-11-12T03:55:42.656Z,99396
2017-11-12T03:58:10.963Z,99397
2017-11-12T04:00:39.317Z,99392
2017-11-12T04:03:07.568Z,99395
2017-11-12T04:05:35.868Z,99391
2017-11-12T04:08:04.269Z,99387
2017-11-12T04:10:32.523Z,99394
2017-11-12T04:13:00.798Z,99393
2017-11-12T04:15:29.170Z,99394
2017-11-12T04:17:57.426Z,99399
2017-11-12T04:20:25.829Z,99394
2017-11-12T04:22:54.159Z,99397
2017-11-12T04:25:22.477Z,99395
2017-11-12T04:27:50.708Z,99395
2017-11-12T04:30:19.785Z,99398
2017-11-12T04:32:48.013Z,99396
2017-11-12T04:35:16.240Z,99403
2017-11-12T04:37:45.515Z,99405
2017-11-12T04:40:13.877Z,99406
2017-11-12T04:42:42.152Z,99394
2017-11-12T04:45:10.416Z,99401
2017-11-12T04:47:38.780Z,99412
2017-11-12T04:50:07.034Z,99413
2017-11-12T04:52:35.297Z,99418
2017-11-12T04:55:03.600Z,99419
2017-11-12T04:57:32.588Z,99428
2017-11-12T05:00:00.921Z,99416
2017-11-12T05:02:29.161Z,99431
2017-11-12T05:04:57.404Z,99431
2017-11-12T05:07:25.761Z,99437
2017-11-12T05:09:54.029Z,99428
2017-11-12T05:12:22.348Z,99437
2017-11-12T05:14:51.396Z,99445
2017-11-12T05:17:19.639Z,99447
2017-11-12T05:19:47.878Z,99453
2017-11-12T05:22:17.349Z,99451
2017-11-12T05:24:45.603Z,99448
2017-11-12T05:27:13.886Z,99454
2017-11-12T05:29:42.193Z,99450
2017-11-12T05:32:10.432Z,99455
2017-11-12T05:34:38.708Z,99458
2017-11-12T05:37:07.040Z,99455
2017-11-12T05:39:36.063Z,99455
2017-11-12T05:42:05.035Z,99456
2017-11-12T05:44:33.327Z,99457
2017-11-12T05:47:01.571Z,99463
2017-11-12T05:49:29.927Z,99460
2017-11-12T05:51:58.221Z,99456
2017-11-12T05:54:27.276Z,99462
2017-11-12T05:56:55.600Z,99465
2017-11-12T05:59:24.617Z,99471
2017-11-12T06:01:53.750Z,99471
2017-11-12T06:04:22.026Z,99467
2017-11-12T06:06:50.362Z,99474
2017-11-12T06:09:18.619Z,99482
2017-11-12T06:11:47.654Z,99475
2017-11-12T06:14:15.975Z,99481
2017-11-12T06:16:44.296Z,99486
2017-11-12T06:19:12.536Z,99485
2017-11-12T06:21:41.640Z,99485
2017-11-12T06:24:09.905Z,99485
2017-11-12T06:26:38.191Z,99472
2017-11-12T06:29:07.251Z,99475
2017-11-12T06:31:35.547Z,99480
2017-11-12T06:34:03.800Z,99478
2017-11-12T06:36:32.032Z,99478
2017-11-12T06:39:00.352Z,99487
2017-11-12T06:41:28.606Z,99484
2017-11-12T06:43:56.856Z,99488
2017-11-12T06:46:25.150Z,99485
2017-11-12T06:48:53.412Z,99488
2017-11-12T06:51:21.727Z,99486
2017-11-12T06:53:50.055Z,99483
2017-11-12T06:56:18.693Z,99482
2017-11-12T06:58:46.934Z,99484
2017-11-12T07:01:15.314Z,99489
2017-11-12T07:03:43.568Z,99484
2017-11-12T07:06:11.819Z,99492
2017-11-12T07:08:40.870Z,99486
2017-11-12T07:11:09.254Z,99499
2017-11-12T07:13:38.545Z,99482
2017-11-12T07:16:06.820Z,99476
2017-11-12T07:18:35.139Z,99479
2017-11-12T07:21:03.455Z,99468
2017-11-12T07:23:31.726Z,99471
2017-11-12T07:26:00.077Z,99470
2017-11-12T07:28:29.090Z,99476
2017-11-12T07:30:57.405Z,99468
2017-11-12T07:33:25.834Z,99473
2017-11-12T07:35:54.356Z,99464
2017-11-12T07:38:23.763Z,99469
2017-11-12T07:40:52.088Z,99457
2017-11-12T07:43:21.132Z,99459
2017-11-12T07:45:49.789Z,99454
2017-11-12T07:48:19.129Z,99456
2017-11-12T07:50:50.239Z,99462
2017-11-12T07:53:36.635Z,99450
2017-11-12T08:05:03.154Z,99439
2017-11-12T08:07:31.930Z,99442
2017-11-12T08:10:01.874Z,99450
2017-11-12T08:12:30.220Z,99453
2017-11-12T08:15:13.385Z,99436
2017-11-12T08:54:55.188Z,99414
2017-11-12T08:57:24.214Z,99420
2017-11-12T08:59:52.528Z,99411
2017-11-12T09:02:20.780Z,99410
2017-11-12T09:04:52.124Z,99406
2017-11-12T09:07:28.383Z,99410
2017-11-12T09:10:04.900Z,99413
2017-11-12T09:12:38.704Z,99408
2017-11-12T09:37:15.589Z,99400
2017-11-12T09:39:47.948Z,99397
2017-11-12T09:42:17.551Z,99397
2017-11-12T09:44:54.022Z,99394
2017-11-12T10:02:26.450Z,99368
2017-11-12T10:08:29.298Z,99364
2017-11-12T10:20:09.081Z,99369
2017-11-12T10:22:39.300Z,99361
2017-11-12T10:25:07.825Z,99361
2017-11-12T10:27:36.245Z,99360
2017-11-12T10:30:04.560Z,99352
2017-11-12T10:32:33.728Z,99343
2017-11-12T10:35:02.033Z,99335
2017-11-12T10:37:32.084Z,99346
2017-11-12T10:40:00.495Z,99332
2017-11-12T10:43:03.304Z,99323
2017-11-12T10:45:40.673Z,99315
2017-11-12T10:48:09.108Z,99328
2017-11-12T10:50:37.480Z,99311
2017-11-12T10:53:06.553Z,99310
2017-11-12T10:55:34.956Z,99317
2017-11-12T10:58:03.290Z,99307
2017-11-12T11:00:32.699Z,99306
2017-11-12T11:03:01.132Z,99313
2017-11-12T11:05:33.113Z,99307
2017-11-12T11:08:01.447Z,99305
2017-11-12T11:10:30.541Z,99293
2017-11-12T11:13:00.007Z,99285
2017-11-12T11:15:28.269Z,99285
2017-11-12T11:17:56.536Z,99286
2017-11-12T11:20:24.889Z,99284
2017-11-12T11:22:53.236Z,99283
2017-11-12T11:25:21.558Z,99277
2017-11-12T11:27:49.860Z,99277
2017-11-12T11:30:20.051Z,99257
2017-11-12T11:32:48.313Z,99257
2017-11-12T11:35:16.546Z,99255
2017-11-12T11:37:44.803Z,99245
2017-11-12T11:40:13.081Z,99236
2017-11-12T11:42:41.378Z,99237
2017-11-12T11:45:09.610Z,99234
2017-11-12T11:47:37.885Z,99241
2017-11-12T11:50:06.172Z,99245
2017-11-12T11:52:34.397Z,99233
2017-11-12T11:55:03.409Z,99230
2017-11-12T11:57:31.742Z,99219
2017-11-12T12:00:00.830Z,99219
2017-11-12T12:02:29.076Z,99221
2017-11-12T12:04:57.380Z,99212
2017-11-12T12:07:25.614Z,99200
2017-11-12T12:09:53.901Z,99194
2017-11-12T12:12:22.200Z,99197
2017-11-12T12:14:50.479Z,99193
2017-11-12T12:17:19.278Z,99201
2017-11-12T12:19:47.515Z,99212
2017-11-12T12:22:15.747Z,99202
2017-11-12T12:24:44.044Z,99197
2017-11-12T12:27:13.036Z,99196
2017-11-12T12:29:41.297Z,99186
2017-11-12T12:32:10.363Z,99187
2017-11-12T12:34:38.623Z,99174
2017-11-12T12:37:08.079Z,99184
2017-11-12T12:39:37.513Z,99174
2017-11-12T12:42:05.750Z,99168
2017-11-12T12:44:33.998Z,99166
2017-11-12T12:47:02.332Z,99160
2017-11-12T12:49:30.572Z,99168
2017-11-12T12:51:58.811Z,99150
2017-11-12T12:54:27.114Z,99150
2017-11-12T12:56:55.343Z,99149
2017-11-12T12:59:23.635Z,99149
2017-11-12T13:01:51.945Z,99140
2017-11-12T13:04:20.195Z,99144
2017-11-12T13:06:48.422Z,99137
2017-11-12T13:09:16.695Z,99133
2017-11-12T13:11:45.683Z,99138
2017-11-12T13:14:14.799Z,99137
2017-11-12T13:16:43.101Z,99139
2017-11-12T13:19:11.369Z,99142
2017-11-12T13:21:39.696Z,99138
2017-11-12T13:24:07.966Z,99136
2017-11-12T13:26:36.209Z,99128
2017-11-12T13:29:04.512Z,99124
2017-11-12T13:31:32.748Z,99121
2017-11-12T13:34:01.060Z,99128
2017-11-12T13:36:29.377Z,99123
2017-11-12T13:38:57.626Z,99121
2017-11-12T13:41:26.680Z,99119
2017-11-12T13:43:54.981Z,99115
2017-11-12T13:46:23.238Z,99103
2017-11-12T13:48:51.501Z,99090
2017-11-12T13:51:19.810Z,99089
2017-11-12T13:53:48.060Z,99081
2017-11-12T13:56:16.340Z,99071
2017-11-12T13:58:44.673Z,99067
2017-11-12T14:01:12.944Z,99065
2017-11-12T14:03:41.935Z,99052
2017-11-12T14:06:11.003Z,99049
2017-11-12T14:08:39.305Z,99053
2017-11-12T14:11:08.313Z,99031
2017-11-12T14:13:36.608Z,99019
2017-11-12T14:16:04.856Z,99016
2017-11-12T14:18:33.172Z,99004
2017-11-12T14:21:01.487Z,99004
2017-11-12T14:23:30.513Z,99008
2017-11-12T14:25:58.749Z,99001
2017-11-12T14:28:27.081Z,98986
2017-11-12T14:30:55.322Z,98988
2017-11-12T14:33:24.320Z,98982
2017-11-12T14:35:52.612Z,98977
2017-11-12T14:38:20.909Z,98971
2017-11-12T14:40:49.168Z,98973
2017-11-12T14:43:17.431Z,98965
2017-11-12T14:45:45.896Z,98964
2017-11-12T14:48:14.904Z,98960
2017-11-12T14:50:43.163Z,98968
2017-11-12T14:53:12.213Z,98951
2017-11-12T14:55:40.475Z,98944
2017-11-12T14:58:08.724Z,98945
2017-11-12T15:00:37.049Z,98941
2017-11-12T15:03:05.333Z,98931
2017-11-12T15:05:33.566Z,98935
2017-11-12T15:08:02.622Z,98929
2017-11-12T15:10:30.886Z,98922
2017-11-12T15:12:59.629Z,98924
2017-11-12T15:15:27.864Z,98908
2017-11-12T15:17:56.861Z,98908
2017-11-12T15:20:25.932Z,98902
2017-11-12T15:22:54.164Z,98899
2017-11-12T15:25:23.208Z,98894
2017-11-12T15:27:52.037Z,98890
2017-11-12T15:30:20.285Z,98889
2017-11-12T15:32:49.322Z,98892
2017-11-12T15:35:17.705Z,98887
2017-11-12T15:37:45.939Z,98881
2017-11-12T15:40:14.931Z,98876
2017-11-12T15:42:44.012Z,98887
2017-11-12T15:45:13.027Z,98883
2017-11-12T15:47:41.254Z,98884
2017-11-12T15:50:09.723Z,98877
2017-11-12T15:52:37.966Z,98863
2017-11-12T15:55:06.221Z,98867
2017-11-12T15:57:35.292Z,98861
2017-11-12T16:00:03.596Z,98866
2017-11-12T16:02:31.849Z,98857
2017-11-12T16:05:00.146Z,98848
2017-11-12T16:07:29.161Z,98851
2017-11-12T16:09:57.419Z,98851
2017-11-12T16:12:26.483Z,98860
2017-11-12T16:14:54.725Z,98852
2017-11-12T16:17:23.037Z,98851
2017-11-12T16:19:51.729Z,98842
2017-11-12T16:22:20.798Z,98842
2017-11-12T16:24:49.046Z,98839
2017-11-12T16:27:17.387Z,98837
2017-11-12T16:29:46.429Z,98826
2017-11-12T16:32:14.696Z,98821
2017-11-12T16:34:43.477Z,98831
2017-11-12T16:37:12.150Z,98823
2017-11-12T16:39:40.502Z,98820
2017-11-12T16:42:09.580Z,98817
2017-11-12T16:44:37.852Z,98816
2017-11-12T16:47:06.164Z,98813
2017-11-12T16:49:34.462Z,98806
2017-11-12T16:52:02.774Z,98804
2017-11-12T16:54:31.084Z,98808
2017-11-12T16:56:59.443Z,98806
2017-11-12T16:59:27.696Z,98808
2017-11-12T17:01:55.965Z,98802
2017-11-12T17:04:24.748Z,98809
2017-11-12T17:06:52.997Z,98807
2017-11-12T17:09:21.279Z,98808
2017-11-12T17:11:49.984Z,98801
2017-11-12T17:14:18.222Z,98794
2017-11-12T17:16:46.480Z,98801
2017-11-12T17:19:15.300Z,98797
2017-11-12T17:21:43.603Z,98797
2017-11-12T17:24:11.917Z,98796
2017-11-12T17:26:41.028Z,98800
2017-11-12T17:29:09.345Z,98786
2017-11-12T17:31:37.612Z,98798
2017-11-12T17:34:05.961Z,98797
2017-11-12T17:36:34.232Z,98800
2017-11-12T17:39:03.293Z,98800
2017-11-12T17:41:31.598Z,98807
2017-11-12T17:44:00.609Z,98809
2017-11-12T17:46:28.865Z,98811
2017-11-12T17:48:57.976Z,98811
2017-11-12T17:51:26.219Z,98808
2017-11-12T17:53:54.566Z,98801
2017-11-12T17:56:23.062Z,98795
2017-11-12T17:58:51.354Z,98787
2017-11-12T18:01:20.390Z,98788
2017-11-12T18:03:48.729Z,98799
2017-11-12T18:06:17.708Z,98797
2017-11-12T18:08:45.987Z,98807
2017-11-12T18:11:15.084Z,98793
2017-11-12T18:13:43.369Z,98783
2017-11-12T18:16:12.392Z,98791
2017-11-12T18:18:40.722Z,98793
2017-11-12T18:21:08.980Z,98799
2017-11-12T18:23:37.249Z,98798
2017-11-12T18:26:05.545Z,98795
2017-11-12T18:28:33.811Z,98783
2017-11-12T18:31:02.126Z,98784
2017-11-12T18:33:31.162Z,98783
2017-11-12T18:35:59.448Z,98774
2017-11-12T18:38:27.768Z,98763
2017-11-12T18:40:56.331Z,98763
2017-11-12T18:43:24.667Z,98753
2017-11-12T18:45:53.946Z,98752
2017-11-12T18:48:22.681Z,98749
2017-11-12T18:50:50.951Z,98752
2017-11-12T18:53:48.067Z,98751
2017-11-12T18:56:33.178Z,98756
2017-11-12T19:11:40.361Z,98730
2017-11-12T19:17:15.701Z,98720
2017-11-12T19:19:43.937Z,98718
2017-11-12T19:46:24.623Z,98708
2017-11-12T19:48:52.889Z,98706
2017-11-12T19:51:23.989Z,98698
2017-11-12T19:53:52.337Z,98710
2017-11-12T19:56:20.767Z,98710
2017-11-12T19:58:52.748Z,98712
2017-11-12T20:01:21.048Z,98699
2017-11-12T20:03:50.323Z,98681
2017-11-12T20:06:20.965Z,98700
2017-11-12T20:08:50.832Z,98697
2017-11-12T20:11:19.534Z,98702
2017-11-12T20:13:47.817Z,98718
2017-11-12T20:16:16.293Z,98721
2017-11-12T20:18:45.135Z,98720
2017-11-12T20:21:13.439Z,98703
2017-11-12T20:23:41.675Z,98714
2017-11-12T20:26:10.750Z,98720
2017-11-12T20:28:41.153Z,98722
2017-11-12T20:31:09.796Z,98727
2017-11-12T20:33:38.085Z,98729
2017-11-12T20:36:07.171Z,98726
2017-11-12T20:38:35.544Z,98722
2017-11-12T20:41:04.687Z,98730
2017-11-12T20:43:32.959Z,98725
2017-11-12T20:46:01.288Z,98723
2017-11-12T20:48:29.569Z,98731
2017-11-12T20:50:57.818Z,98740
2017-11-12T20:53:26.145Z,98735
2017-11-12T20:55:55.445Z,98750
2017-11-12T20:58:24.065Z,98750
2017-11-12T21:00:52.732Z,98752
2017-11-12T21:03:21.442Z,98760
2017-11-12T21:05:51.633Z,98756
2017-11-12T21:08:19.907Z,98746
2017-11-12T21:10:48.209Z,98748
2017-11-12T21:13:17.336Z,98745
2017-11-12T21:15:46.335Z,98726
2017-11-12T21:18:14.609Z,98733
2017-11-12T21:23:47.880Z,98732
2017-11-12T21:26:16.222Z,98737
2017-11-12T21:28:45.261Z,98741
2017-11-12T21:31:15.143Z,98747
2017-11-12T21:36:45.546Z,98743
2017-11-12T21:42:06.761Z,98738
2017-11-12T21:44:36.457Z,98728
2017-11-12T21:47:04.913Z,98724
2017-11-12T21:49:34.826Z,98738
2017-11-12T21:52:04.486Z,98751
2017-11-12T21:54:35.423Z,98752
2017-11-12T21:57:03.858Z,98759
2017-11-12T21:59:32.937Z,98756
2017-11-12T22:02:01.257Z,98757
2017-11-12T22:04:30.364Z,98758
2017-11-12T22:07:00.269Z,98764
2017-11-12T22:09:29.352Z,98768
2017-11-12T22:11:57.635Z,98771
2017-11-12T22:14:27.217Z,98774
2017-11-12T22:16:55.591Z,98776
2017-11-12T22:19:23.965Z,98783
2017-11-12T22:21:52.231Z,98793
2017-11-12T22:24:20.590Z,98781
2017-11-12T22:26:48.864Z,98779
2017-11-12T22:29:17.261Z,98787
2017-11-12T22:31:45.509Z,98779
2017-11-12T22:34:13.810Z,98791
2017-11-12T22:36:42.116Z,98779
2017-11-12T22:39:10.398Z,98776
2017-11-12T22:41:39.532Z,98778
2017-11-12T22:44:07.830Z,98792
2017-11-12T22:46:36.103Z,98786
2017-11-12T22:49:04.537Z,98795
2017-11-12T22:51:33.662Z,98784
2017-11-12T22:54:01.942Z,98783
2017-11-12T22:56:30.232Z,98793
2017-11-12T22:58:58.567Z,98778
2017-11-12T23:01:27.615Z,98782
2017-11-12T23:03:55.922Z,98793
2017-11-12T23:06:25.168Z,98794
2017-11-12T23:08:53.524Z,98794
2017-11-12T23:11:22.540Z,98802
2017-11-12T23:13:51.002Z,98803
2017-11-12T23:16:19.299Z,98796
2017-11-12T23:18:47.620Z,98800
2017-11-12T23:21:16.058Z,98805
2017-11-12T23:23:44.363Z,98806
2017-11-12T23:26:12.719Z,98820
2017-11-12T23:28:41.269Z,98817
2017-11-12T23:31:09.579Z,98821
2017-11-12T23:33:37.901Z,98826
2017-11-12T23:36:06.300Z,98828
2017-11-12T23:38:35.244Z,98832
2017-11-12T23:41:03.579Z,98818
2017-11-12T23:43:31.856Z,98813
2017-11-12T23:46:00.715Z,98827
2017-11-12T23:48:29.294Z,98838
2017-11-12T23:50:57.696Z,98825
2017-11-12T23:53:26.007Z,98818
2017-11-12T23:55:54.434Z,98823
2017-11-12T23:58:22.851Z,98819
